createdAt,value
2019-05-30T00:01:34.314Z,99.90
2019-05-30T00:04:03.642Z,99.90
2019-05-30T00:06:33.452Z,99.90
2019-05-30T00:09:03.250Z,99.90
2019-05-30T00:11:31.837Z,99.90
2019-05-30T00:14:00.709Z,99.90
2019-05-30T00:16:29.344Z,99.90
2019-05-30T00:18:58.747Z,99.90
2019-05-30T00:21:27.479Z,99.90
2019-05-30T00:23:56.089Z,99.90
2019-05-30T00:26:24.710Z,99.90
2019-05-30T00:28:53.253Z,99.90
2019-05-30T00:31:21.790Z,99.90
2019-05-30T00:33:50.338Z,99.90
2019-05-30T00:36:18.881Z,99.90
2019-05-30T00:38:47.441Z,99.90
2019-05-30T00:41:15.975Z,99.90
2019-05-30T00:43:44.534Z,99.90
2019-05-30T00:46:13.070Z,99.90
2019-05-30T00:48:41.674Z,99.90
2019-05-30T00:51:10.226Z,99.90
2019-05-30T00:53:38.835Z,99.90
2019-05-30T00:56:07.397Z,99.90
2019-05-30T00:58:35.923Z,99.90
2019-05-30T01:01:05.169Z,99.90
2019-05-30T01:03:33.755Z,99.90
2019-05-30T01:06:03.004Z,99.90
2019-05-30T01:08:31.713Z,99.90
2019-05-30T01:11:01.051Z,99.90
2019-05-30T01:13:29.667Z,99.90
2019-05-30T01:15:58.939Z,99.90
2019-05-30T01:18:27.628Z,99.90
2019-05-30T01:20:57.014Z,99.90
2019-05-30T01:23:25.772Z,99.90
2019-05-30T01:25:54.372Z,99.90
2019-05-30T01:28:22.930Z,99.90
2019-05-30T01:31:01.471Z,99.90
2019-05-30T01:33:21.761Z,99.90
2019-05-30T01:35:50.303Z,99.90
2019-05-30T01:38:18.891Z,99.90
2019-05-30T01:40:47.444Z,99.90
2019-05-30T01:43:15.970Z,99.90
2019-05-30T01:45:44.523Z,99.90
2019-05-30T01:48:13.207Z,99.90
2019-05-30T01:50:41.853Z,99.90
2019-05-30T01:53:10.399Z,99.90
2019-05-30T01:55:39.010Z,99.90
2019-05-30T01:58:08.967Z,99.90
2019-05-30T02:00:41.728Z,99.90
2019-05-30T02:03:10.423Z,99.90
2019-05-30T02:05:39.088Z,99.90
2019-05-30T02:08:07.784Z,99.90
2019-05-30T02:10:36.381Z,99.90
2019-05-30T02:13:05.686Z,99.90
2019-05-30T02:15:34.354Z,99.90
2019-05-30T02:18:03.528Z,99.90
2019-05-30T02:20:32.322Z,99.90
2019-05-30T02:23:03.215Z,99.90
2019-05-30T02:25:31.220Z,99.90
2019-05-30T02:28:00.027Z,99.90
2019-05-30T02:30:28.764Z,99.90
2019-05-30T02:32:57.325Z,99.90
2019-05-30T02:35:25.870Z,99.90
2019-05-30T02:37:54.419Z,99.90
2019-05-30T02:40:23.803Z,99.90
2019-05-30T02:42:52.440Z,99.90
2019-05-30T02:45:21.152Z,99.90
2019-05-30T02:47:49.855Z,99.90
2019-05-30T02:50:18.666Z,99.90
2019-05-30T02:52:47.266Z,99.90
2019-05-30T02:55:16.167Z,99.90
2019-05-30T02:57:44.708Z,99.90
2019-05-30T03:00:17.608Z,99.90
2019-05-30T03:02:44.583Z,99.90
2019-05-30T03:05:15.165Z,99.90
2019-05-30T03:07:43.691Z,99.90
2019-05-30T03:10:14.935Z,99.90
2019-05-30T03:12:42.831Z,99.90
2019-05-30T03:15:15.308Z,99.90
2019-05-30T03:17:43.100Z,99.90
2019-05-30T03:20:21.862Z,99.90
2019-05-30T03:22:42.194Z,99.90
2019-05-30T03:25:15.312Z,99.90
2019-05-30T03:27:41.627Z,99.90
2019-05-30T03:30:22.202Z,99.90
2019-05-30T03:35:24.105Z,99.90
2019-05-30T03:37:41.742Z,99.90
2019-05-30T03:40:10.534Z,99.90
2019-05-30T03:42:39.149Z,99.90
2019-05-30T03:45:10.994Z,99.90
2019-05-30T03:47:41.412Z,99.90
2019-05-30T03:50:17.010Z,99.90
2019-05-30T03:52:43.438Z,99.90
2019-05-30T03:55:14.931Z,99.90
2019-05-30T03:57:45.816Z,99.90
2019-05-30T04:00:43.133Z,99.90
2019-05-30T04:03:39.179Z,99.90
2019-05-30T04:06:14.440Z,99.90
2019-05-30T04:08:47.373Z,99.90
2019-05-30T04:11:19.735Z,99.90
2019-05-30T04:13:52.074Z,99.90
2019-05-30T04:16:20.641Z,99.90
2019-05-30T04:18:49.268Z,99.90
2019-05-30T04:21:21.217Z,99.90
2019-05-30T04:23:48.143Z,99.90
2019-05-30T04:26:18.174Z,99.90
2019-05-30T04:28:47.039Z,99.90
2019-05-30T04:31:17.176Z,99.90
2019-05-30T04:33:45.843Z,99.90
2019-05-30T04:36:14.712Z,99.90
2019-05-30T04:38:43.359Z,99.90
2019-05-30T04:41:13.468Z,99.90
2019-05-30T04:43:42.149Z,99.90
2019-05-30T04:46:12.138Z,99.90
2019-05-30T04:48:41.098Z,99.90
2019-05-30T04:51:10.186Z,99.90
2019-05-30T04:53:39.658Z,99.90
2019-05-30T04:56:08.183Z,99.90
2019-05-30T04:58:41.473Z,99.90
2019-05-30T05:01:07.070Z,99.90
2019-05-30T05:03:45.177Z,99.90
2019-05-30T05:06:06.079Z,99.90
2019-05-30T05:08:34.708Z,99.90
2019-05-30T05:11:03.256Z,99.90
2019-05-30T05:13:31.934Z,99.90
2019-05-30T05:16:00.474Z,99.90
2019-05-30T05:18:29.043Z,99.90
2019-05-30T05:20:57.572Z,99.90
2019-05-30T05:23:26.112Z,99.90
2019-05-30T05:26:00.870Z,99.90
2019-05-30T05:28:24.857Z,99.90
2019-05-30T05:30:53.427Z,99.90
2019-05-30T05:33:22.680Z,99.90
2019-05-30T05:35:51.384Z,99.90
2019-05-30T05:38:20.206Z,99.90
2019-05-30T05:40:48.770Z,99.90
2019-05-30T05:43:18.678Z,99.90
2019-05-30T05:45:47.411Z,99.90
2019-05-30T05:48:16.516Z,99.90
2019-05-30T05:50:45.207Z,99.90
2019-05-30T05:53:13.807Z,99.90
2019-05-30T05:55:42.370Z,99.90
2019-05-30T05:58:10.972Z,99.90
2019-05-30T06:00:39.519Z,99.90
2019-05-30T06:03:08.079Z,99.90
2019-05-30T06:05:51.952Z,99.90
2019-05-30T06:08:06.819Z,99.90
2019-05-30T06:10:35.356Z,99.90
2019-05-30T06:13:04.057Z,99.90
2019-05-30T06:15:32.600Z,99.90
2019-05-30T06:18:03.029Z,99.90
2019-05-30T06:20:31.684Z,99.90
2019-05-30T06:23:00.262Z,99.90
2019-05-30T06:25:32.470Z,99.90
2019-05-30T06:27:59.071Z,99.90
2019-05-30T06:30:28.757Z,99.90
2019-05-30T06:32:57.396Z,99.90
2019-05-30T06:35:27.353Z,99.90
2019-05-30T06:37:56.068Z,99.90
2019-05-30T06:40:25.534Z,99.90
2019-05-30T06:42:54.057Z,99.90
2019-05-30T06:45:24.096Z,99.90
2019-05-30T06:47:52.987Z,99.90
2019-05-30T06:50:22.584Z,99.90
2019-05-30T06:52:51.252Z,99.90
2019-05-30T06:55:21.141Z,99.90
2019-05-30T06:57:49.688Z,99.90
2019-05-30T07:00:19.176Z,99.90
2019-05-30T07:02:47.830Z,99.90
2019-05-30T07:05:17.162Z,99.90
2019-05-30T07:07:46.145Z,99.90
2019-05-30T07:10:16.465Z,99.90
2019-05-30T07:12:44.999Z,99.90
2019-05-30T07:15:13.895Z,99.90
2019-05-30T07:17:42.575Z,99.90
2019-05-30T07:20:12.087Z,99.90
2019-05-30T07:22:40.715Z,99.90
2019-05-30T07:25:09.817Z,99.90
2019-05-30T07:27:38.368Z,99.90
2019-05-30T07:30:08.901Z,99.90
2019-05-30T07:32:38.044Z,99.90
2019-05-30T07:35:07.628Z,99.90
2019-05-30T07:37:36.535Z,99.90
2019-05-30T07:40:11.031Z,99.90
2019-05-30T07:42:39.999Z,99.90
2019-05-30T07:45:10.456Z,99.90
2019-05-30T07:47:39.691Z,99.90
2019-05-30T07:50:10.520Z,99.90
2019-05-30T07:52:39.135Z,99.90
2019-05-30T07:55:09.348Z,99.90
2019-05-30T07:57:41.168Z,99.90
2019-05-30T08:00:11.236Z,99.90
2019-05-30T08:02:39.708Z,99.90
2019-05-30T08:05:22.723Z,99.90
2019-05-30T08:07:39.132Z,99.90
2019-05-30T08:10:08.461Z,99.90
2019-05-30T08:12:38.266Z,99.90
2019-05-30T08:15:08.840Z,99.90
2019-05-30T08:17:37.887Z,99.90
2019-05-30T08:20:07.952Z,99.90
2019-05-30T08:22:36.577Z,99.90
2019-05-30T08:25:06.442Z,99.90
2019-05-30T08:27:36.196Z,99.90
2019-05-30T08:30:10.199Z,99.90
2019-05-30T08:32:38.998Z,99.90
2019-05-30T08:35:07.886Z,99.90
2019-05-30T08:37:37.261Z,99.90
2019-05-30T08:40:07.568Z,99.90
2019-05-30T08:42:38.128Z,99.90
2019-05-30T08:45:10.004Z,99.90
2019-05-30T08:47:38.171Z,99.90
2019-05-30T08:50:10.416Z,99.90
2019-05-30T08:52:40.674Z,99.90
2019-05-30T08:55:12.229Z,99.90
2019-05-30T08:57:41.163Z,99.90
2019-05-30T09:00:12.304Z,99.90
2019-05-30T09:02:41.120Z,99.90
2019-05-30T09:05:10.411Z,99.90
2019-05-30T09:07:40.065Z,99.90
2019-05-30T09:10:09.867Z,99.90
2019-05-30T09:12:40.066Z,99.90
2019-05-30T09:15:12.888Z,99.90
2019-05-30T09:17:44.279Z,99.90
2019-05-30T09:20:15.133Z,99.90
2019-05-30T09:22:43.865Z,99.90
2019-05-30T09:25:13.239Z,99.90
2019-05-30T09:27:42.957Z,99.90
2019-05-30T09:30:14.853Z,99.90
2019-05-30T09:32:45.020Z,99.90
2019-05-30T09:35:14.623Z,99.90
2019-05-30T09:37:44.021Z,99.90
2019-05-30T09:40:14.071Z,99.90
2019-05-30T09:42:44.533Z,99.90
2019-05-30T09:45:15.282Z,99.90
2019-05-30T09:47:46.664Z,99.90
2019-05-30T09:50:14.675Z,99.90
2019-05-30T09:52:43.654Z,99.90
2019-05-30T09:55:14.497Z,99.40
2019-05-30T09:57:44.347Z,99.90
2019-05-30T10:00:16.520Z,99.90
2019-05-30T10:02:46.761Z,99.90
2019-05-30T10:05:16.274Z,99.90
2019-05-30T10:07:45.473Z,99.90
2019-05-30T10:10:15.567Z,99.90
2019-05-30T10:12:45.569Z,99.90
2019-05-30T10:15:14.499Z,99.90
2019-05-30T10:17:44.542Z,99.90
2019-05-30T10:20:13.383Z,99.90
2019-05-30T10:22:41.945Z,99.90
2019-05-30T10:25:10.915Z,99.90
2019-05-30T10:27:39.543Z,99.90
2019-05-30T10:30:12.413Z,99.90
2019-05-30T10:32:41.036Z,99.90
2019-05-30T10:35:10.830Z,99.90
2019-05-30T10:37:39.403Z,99.90
2019-05-30T10:40:09.188Z,99.90
2019-05-30T10:42:37.821Z,99.90
2019-05-30T10:45:09.000Z,99.90
2019-05-30T10:47:37.633Z,99.90
2019-05-30T10:50:08.488Z,99.90
2019-05-30T10:52:37.112Z,99.90
2019-05-30T10:55:09.557Z,99.90
2019-05-30T10:57:38.179Z,99.90
2019-05-30T11:00:10.717Z,99.90
2019-05-30T11:02:40.126Z,99.90
2019-05-30T11:05:09.604Z,99.90
2019-05-30T11:07:54.658Z,99.90
2019-05-30T11:10:23.175Z,99.90
2019-05-30T11:12:57.480Z,99.90
2019-05-30T11:15:22.153Z,99.90
2019-05-30T11:17:52.725Z,99.90
2019-05-30T11:20:21.409Z,99.90
2019-05-30T11:22:50.136Z,99.90
2019-05-30T11:25:18.797Z,99.90
2019-05-30T11:27:48.530Z,99.90
2019-05-30T11:30:17.447Z,99.90
2019-05-30T11:32:46.008Z,99.90
2019-05-30T11:35:14.916Z,99.90
2019-05-30T11:37:43.454Z,99.90
2019-05-30T11:40:13.464Z,99.90
2019-05-30T11:42:42.001Z,99.90
2019-05-30T11:45:11.992Z,99.40
2019-05-30T11:47:40.531Z,98.90
2019-05-30T11:50:12.952Z,98.30
2019-05-30T11:52:40.389Z,99.90
2019-05-30T11:55:09.379Z,99.90
2019-05-30T11:57:38.003Z,99.90
2019-05-30T12:00:08.562Z,99.90
2019-05-30T12:02:37.043Z,99.90
2019-05-30T12:05:06.745Z,99.90
2019-05-30T12:07:36.914Z,99.60
2019-05-30T12:10:06.531Z,97.30
2019-05-30T12:12:35.428Z,96.10
2019-05-30T12:15:09.393Z,96.40
2019-05-30T12:17:37.996Z,98.40
2019-05-30T12:20:07.787Z,95.80
2019-05-30T12:22:36.460Z,95.50
2019-05-30T12:25:08.340Z,95.40
2019-05-30T12:27:36.939Z,94.40
2019-05-30T12:30:10.389Z,93.10
2019-05-30T12:32:38.933Z,95.60
2019-05-30T12:35:10.944Z,95.60
2019-05-30T12:37:54.315Z,93.30
2019-05-30T12:40:10.992Z,94.00
2019-05-30T12:42:39.597Z,95.60
2019-05-30T12:45:09.498Z,91.10
2019-05-30T12:47:38.092Z,91.30
2019-05-30T12:50:10.810Z,92.50
2019-05-30T12:52:39.627Z,92.50
2019-05-30T12:55:11.904Z,91.20
2019-05-30T12:57:40.507Z,92.60
2019-05-30T13:00:18.666Z,90.80
2019-05-30T13:02:45.286Z,89.60
2019-05-30T13:05:14.148Z,85.90
2019-05-30T13:07:42.780Z,87.10
2019-05-30T13:10:11.852Z,83.70
2019-05-30T13:12:40.420Z,87.80
2019-05-30T13:15:10.088Z,82.90
2019-05-30T13:17:38.744Z,86.30
2019-05-30T13:20:08.819Z,85.50
2019-05-30T13:22:37.515Z,80.30
2019-05-30T13:25:10.372Z,80.60
2019-05-30T13:27:38.999Z,76.70
2019-05-30T13:30:10.844Z,79.10
2019-05-30T13:32:39.568Z,79.10
2019-05-30T13:35:10.046Z,78.50
2019-05-30T13:37:38.747Z,79.70
2019-05-30T13:40:23.708Z,80.90
2019-05-30T13:42:39.403Z,80.00
2019-05-30T13:45:09.201Z,81.00
2019-05-30T13:47:38.134Z,81.60
2019-05-30T13:50:13.401Z,80.90
2019-05-30T13:52:41.623Z,79.30
2019-05-30T13:55:10.978Z,78.10
2019-05-30T13:57:39.615Z,75.50
2019-05-30T14:00:10.752Z,74.50
2019-05-30T14:02:39.489Z,76.80
2019-05-30T14:05:10.583Z,78.80
2019-05-30T14:07:39.477Z,75.60
2019-05-30T14:10:08.814Z,77.30
2019-05-30T14:12:37.485Z,79.90
2019-05-30T14:15:13.796Z,86.90
2019-05-30T14:17:40.466Z,78.30
2019-05-30T14:20:09.749Z,74.70
2019-05-30T14:22:38.370Z,75.40
2019-05-30T14:25:07.560Z,75.10
2019-05-30T14:27:36.436Z,72.40
2019-05-30T14:30:07.176Z,75.80
2019-05-30T14:32:35.878Z,73.60
2019-05-30T14:35:08.333Z,74.70
2019-05-30T14:37:37.217Z,72.70
2019-05-30T14:40:11.207Z,73.90
2019-05-30T14:42:39.975Z,74.40
2019-05-30T14:45:10.376Z,74.00
2019-05-30T14:47:39.371Z,75.60
2019-05-30T14:50:09.226Z,75.50
2019-05-30T14:52:37.870Z,82.70
2019-05-30T14:55:09.033Z,76.60
2019-05-30T14:57:37.845Z,76.10
2019-05-30T15:00:09.343Z,76.60
2019-05-30T15:02:38.140Z,76.70
2019-05-30T15:05:07.563Z,83.40
2019-05-30T15:07:36.214Z,76.60
2019-05-30T15:10:08.820Z,80.40
2019-05-30T15:12:37.548Z,74.80
2019-05-30T15:15:08.007Z,77.30
2019-05-30T15:17:37.607Z,73.30
2019-05-30T15:20:10.015Z,70.40
2019-05-30T15:22:38.251Z,78.00
2019-05-30T15:25:07.975Z,80.70
2019-05-30T15:27:37.119Z,75.90
2019-05-30T15:30:08.355Z,72.60
2019-05-30T15:32:36.971Z,73.70
2019-05-30T15:35:06.776Z,73.60
2019-05-30T15:37:35.448Z,75.60
2019-05-30T15:40:08.961Z,79.30
2019-05-30T15:42:37.601Z,73.90
2019-05-30T15:45:11.896Z,73.90
2019-05-30T15:47:40.701Z,74.20
2019-05-30T15:50:11.462Z,73.40
2019-05-30T15:52:40.439Z,77.40
2019-05-30T15:55:11.184Z,82.30
2019-05-30T15:57:39.889Z,81.30
2019-05-30T16:00:10.165Z,83.80
2019-05-30T16:02:38.872Z,80.20
2019-05-30T16:05:07.887Z,81.00
2019-05-30T16:07:36.490Z,77.70
2019-05-30T16:10:08.807Z,76.60
2019-05-30T16:12:37.334Z,78.20
2019-05-30T16:15:09.391Z,77.10
2019-05-30T16:17:37.931Z,76.50
2019-05-30T16:20:07.935Z,75.20
2019-05-30T16:22:36.493Z,78.70
2019-05-30T16:25:06.473Z,80.90
2019-05-30T16:27:35.083Z,84.40
2019-05-30T16:30:06.006Z,86.70
2019-05-30T16:32:34.524Z,84.00
2019-05-30T16:35:03.323Z,85.80
2019-05-30T16:37:31.923Z,86.00
2019-05-30T16:40:06.103Z,77.50
2019-05-30T16:42:30.812Z,86.50
2019-05-30T16:44:59.344Z,88.10
2019-05-30T16:47:27.924Z,84.40
2019-05-30T16:49:56.455Z,83.80
2019-05-30T16:52:25.020Z,89.10
2019-05-30T16:54:53.559Z,91.50
2019-05-30T16:57:22.710Z,93.10
2019-05-30T16:59:51.312Z,93.00
2019-05-30T17:02:20.845Z,93.30
2019-05-30T17:04:49.483Z,95.10
2019-05-30T17:07:19.026Z,94.70
2019-05-30T17:09:47.823Z,94.10
2019-05-30T17:12:17.427Z,95.90
2019-05-30T17:14:46.159Z,95.30
2019-05-30T17:17:16.123Z,94.50
2019-05-30T17:19:44.848Z,95.30
2019-05-30T17:22:13.445Z,95.70
2019-05-30T17:24:42.017Z,97.60
2019-05-30T17:27:10.531Z,97.00
2019-05-30T17:29:39.071Z,95.20
2019-05-30T17:32:07.737Z,94.50
2019-05-30T17:34:36.298Z,89.70
2019-05-30T17:37:04.923Z,92.70
2019-05-30T17:39:33.455Z,93.90
2019-05-30T17:42:02.026Z,92.50
2019-05-30T17:44:30.627Z,93.50
2019-05-30T17:46:59.269Z,91.60
2019-05-30T17:49:30.015Z,91.30
2019-05-30T17:51:58.608Z,89.10
2019-05-30T17:54:28.038Z,86.60
2019-05-30T17:56:56.858Z,86.30
2019-05-30T17:59:26.370Z,87.00
2019-05-30T18:02:00.760Z,85.50
2019-05-30T18:04:28.627Z,84.70
2019-05-30T18:06:57.284Z,84.90
2019-05-30T18:09:27.164Z,86.60
2019-05-30T18:11:55.811Z,86.20
2019-05-30T18:14:25.083Z,91.10
2019-05-30T18:16:53.670Z,93.10
2019-05-30T18:19:23.338Z,93.30
2019-05-30T18:21:52.134Z,96.00
2019-05-30T18:24:21.427Z,96.50
2019-05-30T18:26:50.087Z,98.20
2019-05-30T18:29:19.132Z,99.10
2019-05-30T18:31:47.783Z,99.40
2019-05-30T18:34:16.319Z,99.90
2019-05-30T18:36:44.992Z,99.90
2019-05-30T18:39:13.517Z,99.90
2019-05-30T18:41:42.077Z,99.90
2019-05-30T18:44:10.755Z,99.90
2019-05-30T18:46:39.395Z,99.90
2019-05-30T18:49:07.996Z,99.90
2019-05-30T18:51:36.769Z,99.90
2019-05-30T18:54:05.539Z,99.90
2019-05-30T18:56:34.221Z,99.90
2019-05-30T18:59:02.705Z,99.90
2019-05-30T19:01:31.651Z,99.90
2019-05-30T19:04:00.603Z,99.90
2019-05-30T19:06:29.946Z,99.90
2019-05-30T19:08:58.772Z,99.90
2019-05-30T19:11:31.482Z,99.90
2019-05-30T19:13:57.632Z,99.90
2019-05-30T19:16:26.378Z,99.90
2019-05-30T19:18:55.173Z,99.90
2019-05-30T19:21:23.780Z,99.90
2019-05-30T19:23:52.414Z,99.90
2019-05-30T19:26:20.943Z,99.90
2019-05-30T19:28:49.496Z,99.90
2019-05-30T19:31:18.048Z,99.90
2019-05-30T19:33:46.588Z,99.90
2019-05-30T19:36:15.117Z,99.90
2019-05-30T19:38:43.677Z,99.90
2019-05-30T19:41:12.279Z,99.90
2019-05-30T19:43:40.915Z,99.90
2019-05-30T19:46:12.942Z,99.90
2019-05-30T19:48:39.657Z,99.90
2019-05-30T19:51:08.189Z,99.90
2019-05-30T19:53:36.990Z,99.90
2019-05-30T19:56:05.746Z,99.90
2019-05-30T19:58:35.541Z,99.90
2019-05-30T20:01:04.342Z,99.90
2019-05-30T20:03:38.524Z,99.90
2019-05-30T20:06:03.035Z,99.90
2019-05-30T20:08:46.920Z,99.90
2019-05-30T20:11:01.784Z,99.90
2019-05-30T20:13:31.089Z,99.90
2019-05-30T20:15:59.743Z,99.90
2019-05-30T20:18:28.298Z,99.90
2019-05-30T20:20:58.174Z,99.90
2019-05-30T20:23:26.802Z,99.90
2019-05-30T20:25:55.330Z,99.90
2019-05-30T20:28:24.732Z,99.90
2019-05-30T20:30:53.272Z,99.90
2019-05-30T20:33:21.830Z,99.90
2019-05-30T20:35:50.376Z,99.90
2019-05-30T20:38:19.074Z,99.90
2019-05-30T20:40:47.674Z,99.90
2019-05-30T20:43:16.324Z,99.90
2019-05-30T20:45:48.359Z,99.90
2019-05-30T20:48:15.213Z,99.90
2019-05-30T20:50:43.750Z,99.90
2019-05-30T20:53:12.375Z,99.90
2019-05-30T20:55:40.987Z,99.90
2019-05-30T20:58:09.619Z,99.90
2019-05-30T21:00:40.070Z,99.90
2019-05-30T21:03:09.096Z,99.90
2019-05-30T21:05:37.855Z,99.90
2019-05-30T21:08:06.637Z,99.90
2019-05-30T21:10:36.932Z,99.90
2019-05-30T21:13:05.877Z,99.90
2019-05-30T21:15:36.030Z,99.90
2019-05-30T21:18:05.525Z,99.90
2019-05-30T21:20:34.200Z,99.90
2019-05-30T21:23:02.845Z,99.90
2019-05-30T21:25:31.377Z,99.90
2019-05-30T21:27:59.940Z,99.90
2019-05-30T21:30:28.613Z,99.90
2019-05-30T21:32:57.275Z,99.90
2019-05-30T21:35:26.149Z,99.90
2019-05-30T21:37:54.854Z,99.90
2019-05-30T21:40:23.483Z,99.90
2019-05-30T21:43:04.690Z,99.90
2019-05-30T21:45:22.774Z,99.90
2019-05-30T21:47:51.387Z,99.90
2019-05-30T21:50:20.118Z,99.90
2019-05-30T21:52:49.805Z,99.90
2019-05-30T21:55:18.490Z,99.90
2019-05-30T21:57:48.015Z,99.90
2019-05-30T22:00:21.402Z,99.90
2019-05-30T22:02:54.663Z,99.90
2019-05-30T22:05:23.855Z,99.90
2019-05-30T22:07:52.533Z,99.90
2019-05-30T22:10:21.173Z,99.90
2019-05-30T22:12:49.778Z,99.90
2019-05-30T22:15:18.823Z,99.90
2019-05-30T22:17:47.879Z,99.90
2019-05-30T22:20:16.699Z,99.90
2019-05-30T22:22:46.163Z,99.90
2019-05-30T22:25:14.945Z,99.90
2019-05-30T22:27:44.440Z,99.90
2019-05-30T22:30:14.365Z,99.90
2019-05-30T22:32:42.907Z,99.90
2019-05-30T22:35:11.522Z,99.90
2019-05-30T22:37:40.087Z,99.90
2019-05-30T22:40:08.939Z,99.90
2019-05-30T22:42:37.495Z,99.90
2019-05-30T22:45:06.668Z,99.90
2019-05-30T22:47:35.420Z,99.90
2019-05-30T22:50:05.718Z,99.90
2019-05-30T22:52:34.271Z,99.90
2019-05-30T22:55:02.984Z,99.90
2019-05-30T22:57:31.510Z,99.90
2019-05-30T23:00:00.073Z,99.90
2019-05-30T23:02:28.614Z,99.90
2019-05-30T23:04:57.171Z,99.90
2019-05-30T23:07:25.706Z,99.90
2019-05-30T23:09:54.255Z,99.90
2019-05-30T23:12:22.799Z,99.90
2019-05-30T23:14:52.250Z,99.90
2019-05-30T23:17:20.964Z,99.90
2019-05-30T23:19:50.901Z,99.90
2019-05-30T23:22:19.642Z,99.90
2019-05-30T23:24:49.214Z,99.90
2019-05-30T23:27:17.841Z,99.90
2019-05-30T23:29:47.598Z,99.90
2019-05-30T23:32:18.169Z,99.90
2019-05-30T23:34:46.718Z,99.90
2019-05-30T23:37:15.317Z,99.90
2019-05-30T23:39:43.877Z,99.90
2019-05-30T23:42:12.420Z,99.90
2019-05-30T23:44:40.968Z,99.90
2019-05-30T23:47:09.530Z,99.90
2019-05-30T23:49:38.055Z,99.90
2019-05-30T23:52:06.605Z,99.90
2019-05-30T23:54:35.133Z,99.90
2019-05-30T23:57:03.759Z,99.90
2019-05-30T23:59:32.300Z,99.90
